sensor_id;sensor_type;location;lat;lon;timestamp;P1;durP1;ratioP1;P2;durP2;ratioP2
4274;SDS011;2151;50.988;11.068;2024-02-04T00:02:03;111.90;;;5.63;;
4274;SDS011;2151;50.988;11.068;2024-02-04T00:04:30;111.07;;;5.30;;
4274;SDS011;2151;50.988;11.068;2024-02-04T00:06:59;112.63;;;6.00;;
4274;SDS011;2151;50.988;11.068;2024-02-04T00:09:25;111.57;;;5.70;;
4274;SDS011;2151;50.988;11.068;2024-02-04T00:11:54;111.37;;;5.77;;
4274;SDS011;2151;50.988;11.068;2024-02-04T00:14:21;114.57;;;6.00;;
4274;SDS011;2151;50.988;11.068;2024-02-04T00:16:47;111.57;;;5.70;;
4274;SDS011;2151;50.988;11.068;2024-02-04T00:19:16;111.47;;;5.57;;
4274;SDS011;2151;50.988;11.068;2024-02-04T00:21:42;113.50;;;5.80;;
4274;SDS011;2151;50.988;11.068;2024-02-04T00:24:09;111.47;;;5.50;;
4274;SDS011;2151;50.988;11.068;2024-02-04T00:26:35;111.17;;;5.33;;
4274;SDS011;2151;50.988;11.068;2024-02-04T00:29:02;111.13;;;5.60;;
4274;SDS011;2151;50.988;11.068;2024-02-04T00:31:29;111.07;;;5.33;;
4274;SDS011;2151;50.988;11.068;2024-02-04T00:33:55;112.33;;;5.53;;
4274;SDS011;2151;50.988;11.068;2024-02-04T00:36:22;111.23;;;5.60;;
4274;SDS011;2151;50.988;11.068;2024-02-04T00:38:48;111.23;;;5.43;;
4274;SDS011;2151;50.988;11.068;2024-02-04T00:41:15;111.57;;;5.30;;
4274;SDS011;2151;50.988;11.068;2024-02-04T00:43:41;109.80;;;5.20;;
4274;SDS011;2151;50.988;11.068;2024-02-04T00:46:08;112.57;;;6.27;;
4274;SDS011;2151;50.988;11.068;2024-02-04T00:48:36;112.07;;;5.30;;
4274;SDS011;2151;50.988;11.068;2024-02-04T00:51:04;111.30;;;6.07;;
4274;SDS011;2151;50.988;11.068;2024-02-04T00:53:30;111.33;;;5.70;;
4274;SDS011;2151;50.988;11.068;2024-02-04T00:56:03;111.10;;;5.57;;
4274;SDS011;2151;50.988;11.068;2024-02-04T00:58:30;113.53;;;5.97;;
4274;SDS011;2151;50.988;11.068;2024-02-04T01:00:56;111.70;;;5.53;;
4274;SDS011;2151;50.988;11.068;2024-02-04T01:03:23;111.37;;;5.50;;
4274;SDS011;2151;50.988;11.068;2024-02-04T01:05:50;111.73;;;6.00;;
4274;SDS011;2151;50.988;11.068;2024-02-04T01:08:17;112.17;;;5.60;;
4274;SDS011;2151;50.988;11.068;2024-02-04T01:10:43;111.10;;;5.30;;
4274;SDS011;2151;50.988;11.068;2024-02-04T01:13:10;114.17;;;5.33;;
4274;SDS011;2151;50.988;11.068;2024-02-04T01:15:36;111.47;;;5.33;;
4274;SDS011;2151;50.988;11.068;2024-02-04T01:18:02;111.70;;;5.20;;
4274;SDS011;2151;50.988;11.068;2024-02-04T01:20:29;111.00;;;5.20;;
4274;SDS011;2151;50.988;11.068;2024-02-04T01:22:56;110.70;;;4.60;;
4274;SDS011;2151;50.988;11.068;2024-02-04T01:25:22;114.10;;;5.17;;
4274;SDS011;2151;50.988;11.068;2024-02-04T01:27:50;110.37;;;4.80;;
4274;SDS011;2151;50.988;11.068;2024-02-04T01:30:17;110.80;;;5.20;;
4274;SDS011;2151;50.988;11.068;2024-02-04T01:32:43;111.20;;;5.40;;
4274;SDS011;2151;50.988;11.068;2024-02-04T01:35:10;111.17;;;5.20;;
4274;SDS011;2151;50.988;11.068;2024-02-04T01:37:36;111.90;;;5.50;;
4274;SDS011;2151;50.988;11.068;2024-02-04T01:40:03;111.30;;;5.27;;
4274;SDS011;2151;50.988;11.068;2024-02-04T01:42:32;110.77;;;5.00;;
4274;SDS011;2151;50.988;11.068;2024-02-04T01:44:58;114.57;;;5.63;;
4274;SDS011;2151;50.988;11.068;2024-02-04T01:47:24;110.40;;;5.17;;
4274;SDS011;2151;50.988;11.068;2024-02-04T01:49:51;111.27;;;5.40;;
4274;SDS011;2151;50.988;11.068;2024-02-04T01:52:17;112.50;;;6.00;;
4274;SDS011;2151;50.988;11.068;2024-02-04T01:54:44;111.90;;;5.60;;
4274;SDS011;2151;50.988;11.068;2024-02-04T01:57:11;114.40;;;6.10;;
4274;SDS011;2151;50.988;11.068;2024-02-04T01:59:38;112.43;;;6.30;;
4274;SDS011;2151;50.988;11.068;2024-02-04T02:02:06;112.33;;;5.90;;
4274;SDS011;2151;50.988;11.068;2024-02-04T02:04:32;113.47;;;6.10;;
4274;SDS011;2151;50.988;11.068;2024-02-04T02:06:59;114.40;;;5.67;;
4274;SDS011;2151;50.988;11.068;2024-02-04T02:09:26;113.50;;;6.20;;
4274;SDS011;2151;50.988;11.068;2024-02-04T02:14:30;112.50;;;5.93;;
4274;SDS011;2151;50.988;11.068;2024-02-04T02:16:59;114.20;;;6.50;;
4274;SDS011;2151;50.988;11.068;2024-02-04T02:24:40;112.10;;;6.00;;
4274;SDS011;2151;50.988;11.068;2024-02-04T02:27:08;114.30;;;6.23;;
4274;SDS011;2151;50.988;11.068;2024-02-04T02:29:35;112.57;;;6.40;;
4274;SDS011;2151;50.988;11.068;2024-02-04T02:32:02;111.97;;;5.97;;
4274;SDS011;2151;50.988;11.068;2024-02-04T02:34:31;109.97;;;5.60;;
4274;SDS011;2151;50.988;11.068;2024-02-04T02:39:32;112.07;;;6.00;;
4274;SDS011;2151;50.988;11.068;2024-02-04T02:41:59;111.80;;;5.83;;
4274;SDS011;2151;50.988;11.068;2024-02-04T02:44:27;111.87;;;5.90;;
4274;SDS011;2151;50.988;11.068;2024-02-04T02:46:55;112.07;;;6.00;;
4274;SDS011;2151;50.988;11.068;2024-02-04T02:49:23;112.87;;;6.10;;
4274;SDS011;2151;50.988;11.068;2024-02-04T02:51:50;111.47;;;5.70;;
4274;SDS011;2151;50.988;11.068;2024-02-04T02:54:16;112.20;;;5.40;;
4274;SDS011;2151;50.988;11.068;2024-02-04T02:56:43;113.70;;;5.93;;
4274;SDS011;2151;50.988;11.068;2024-02-04T03:02:37;114.17;;;6.23;;
4274;SDS011;2151;50.988;11.068;2024-02-04T03:05:03;113.50;;;5.87;;
4274;SDS011;2151;50.988;11.068;2024-02-04T03:07:30;112.17;;;5.93;;
4274;SDS011;2151;50.988;11.068;2024-02-04T03:09:57;111.00;;;5.60;;
4274;SDS011;2151;50.988;11.068;2024-02-04T03:12:23;111.43;;;5.70;;
4274;SDS011;2151;50.988;11.068;2024-02-04T03:14:49;110.70;;;5.37;;
4274;SDS011;2151;50.988;11.068;2024-02-04T03:17:16;111.87;;;5.63;;
4274;SDS011;2151;50.988;11.068;2024-02-04T03:19:47;112.03;;;5.80;;
4274;SDS011;2151;50.988;11.068;2024-02-04T03:22:14;111.47;;;5.37;;
4274;SDS011;2151;50.988;11.068;2024-02-04T03:24:40;111.23;;;5.40;;
4274;SDS011;2151;50.988;11.068;2024-02-04T03:27:07;111.43;;;5.40;;
4274;SDS011;2151;50.988;11.068;2024-02-04T03:29:33;111.80;;;5.70;;
4274;SDS011;2151;50.988;11.068;2024-02-04T03:32:00;111.10;;;5.83;;
4274;SDS011;2151;50.988;11.068;2024-02-04T03:34:26;114.87;;;5.70;;
4274;SDS011;2151;50.988;11.068;2024-02-04T03:36:53;111.17;;;5.53;;
4274;SDS011;2151;50.988;11.068;2024-02-04T03:39:20;111.37;;;5.53;;
4274;SDS011;2151;50.988;11.068;2024-02-04T03:41:46;111.17;;;5.70;;
4274;SDS011;2151;50.988;11.068;2024-02-04T03:44:13;111.70;;;5.17;;
4274;SDS011;2151;50.988;11.068;2024-02-04T03:46:40;112.40;;;5.70;;
4274;SDS011;2151;50.988;11.068;2024-02-04T03:49:07;111.57;;;5.50;;
4274;SDS011;2151;50.988;11.068;2024-02-04T03:51:34;111.30;;;5.70;;
4274;SDS011;2151;50.988;11.068;2024-02-04T03:54:00;110.37;;;5.27;;
4274;SDS011;2151;50.988;11.068;2024-02-04T03:56:27;110.70;;;5.50;;
4274;SDS011;2151;50.988;11.068;2024-02-04T03:58:54;110.70;;;5.50;;
4274;SDS011;2151;50.988;11.068;2024-02-04T04:01:20;110.57;;;5.33;;
4274;SDS011;2151;50.988;11.068;2024-02-04T04:03:47;112.13;;;5.50;;
4274;SDS011;2151;50.988;11.068;2024-02-04T04:06:14;110.70;;;5.10;;
4274;SDS011;2151;50.988;11.068;2024-02-04T04:08:40;111.60;;;5.40;;
4274;SDS011;2151;50.988;11.068;2024-02-04T04:11:08;110.57;;;5.13;;
4274;SDS011;2151;50.988;11.068;2024-02-04T04:13:34;111.87;;;5.17;;
4274;SDS011;2151;50.988;11.068;2024-02-04T04:16:04;110.40;;;5.30;;
4274;SDS011;2151;50.988;11.068;2024-02-04T04:18:31;110.47;;;5.20;;
4274;SDS011;2151;50.988;11.068;2024-02-04T04:20:58;110.57;;;4.90;;
4274;SDS011;2151;50.988;11.068;2024-02-04T04:23:24;110.50;;;5.00;;
4274;SDS011;2151;50.988;11.068;2024-02-04T04:25:51;110.10;;;5.03;;
4274;SDS011;2151;50.988;11.068;2024-02-04T04:28:17;110.57;;;4.80;;
4274;SDS011;2151;50.988;11.068;2024-02-04T04:30:43;110.27;;;4.70;;
4274;SDS011;2151;50.988;11.068;2024-02-04T04:33:10;110.17;;;4.80;;
4274;SDS011;2151;50.988;11.068;2024-02-04T04:35:38;112.10;;;4.80;;
4274;SDS011;2151;50.988;11.068;2024-02-04T04:38:05;109.87;;;4.37;;
4274;SDS011;2151;50.988;11.068;2024-02-04T04:40:31;110.27;;;4.63;;
4274;SDS011;2151;50.988;11.068;2024-02-04T04:42:58;110.30;;;4.67;;
4274;SDS011;2151;50.988;11.068;2024-02-04T04:45:25;109.43;;;4.20;;
4274;SDS011;2151;50.988;11.068;2024-02-04T04:47:51;109.60;;;4.67;;
4274;SDS011;2151;50.988;11.068;2024-02-04T04:50:18;109.83;;;4.43;;
4274;SDS011;2151;50.988;11.068;2024-02-04T04:52:44;110.07;;;4.30;;
4274;SDS011;2151;50.988;11.068;2024-02-04T04:55:11;110.07;;;4.50;;
4274;SDS011;2151;50.988;11.068;2024-02-04T04:57:38;109.40;;;4.33;;
4274;SDS011;2151;50.988;11.068;2024-02-04T05:00:05;109.97;;;4.33;;
4274;SDS011;2151;50.988;11.068;2024-02-04T05:02:33;110.30;;;4.60;;
4274;SDS011;2151;50.988;11.068;2024-02-04T05:05:00;109.73;;;4.60;;
4274;SDS011;2151;50.988;11.068;2024-02-04T05:07:27;110.17;;;4.60;;
4274;SDS011;2151;50.988;11.068;2024-02-04T05:09:53;110.33;;;4.50;;
4274;SDS011;2151;50.988;11.068;2024-02-04T05:12:20;109.70;;;4.47;;
4274;SDS011;2151;50.988;11.068;2024-02-04T05:14:46;111.77;;;4.73;;
4274;SDS011;2151;50.988;11.068;2024-02-04T05:17:12;110.20;;;4.47;;
4274;SDS011;2151;50.988;11.068;2024-02-04T05:19:40;109.70;;;4.47;;
4274;SDS011;2151;50.988;11.068;2024-02-04T05:22:07;110.07;;;4.70;;
4274;SDS011;2151;50.988;11.068;2024-02-04T05:24:34;110.07;;;4.50;;
4274;SDS011;2151;50.988;11.068;2024-02-04T05:27:00;110.53;;;4.83;;
4274;SDS011;2151;50.988;11.068;2024-02-04T05:29:27;109.97;;;4.80;;
4274;SDS011;2151;50.988;11.068;2024-02-04T05:31:53;111.40;;;4.43;;
4274;SDS011;2151;50.988;11.068;2024-02-04T05:34:20;110.17;;;4.30;;
4274;SDS011;2151;50.988;11.068;2024-02-04T05:36:47;110.37;;;4.40;;
4274;SDS011;2151;50.988;11.068;2024-02-04T05:39:14;109.90;;;4.30;;
4274;SDS011;2151;50.988;11.068;2024-02-04T05:41:41;109.40;;;4.40;;
4274;SDS011;2151;50.988;11.068;2024-02-04T05:44:08;110.37;;;4.50;;
4274;SDS011;2151;50.988;11.068;2024-02-04T05:46:35;109.67;;;4.20;;
4274;SDS011;2151;50.988;11.068;2024-02-04T05:49:02;109.20;;;4.40;;
4274;SDS011;2151;50.988;11.068;2024-02-04T05:51:32;112.40;;;4.40;;
4274;SDS011;2151;50.988;11.068;2024-02-04T05:53:59;110.00;;;4.33;;
4274;SDS011;2151;50.988;11.068;2024-02-04T05:56:26;110.30;;;4.23;;
4274;SDS011;2151;50.988;11.068;2024-02-04T05:58:52;109.73;;;4.30;;
4274;SDS011;2151;50.988;11.068;2024-02-04T06:01:19;109.60;;;4.43;;
4274;SDS011;2151;50.988;11.068;2024-02-04T06:03:49;110.27;;;4.40;;
4274;SDS011;2151;50.988;11.068;2024-02-04T06:06:17;109.30;;;4.13;;
4274;SDS011;2151;50.988;11.068;2024-02-04T06:08:47;109.17;;;4.27;;
4274;SDS011;2151;50.988;11.068;2024-02-04T06:11:14;111.10;;;4.30;;
4274;SDS011;2151;50.988;11.068;2024-02-04T06:13:41;111.23;;;4.40;;
4274;SDS011;2151;50.988;11.068;2024-02-04T06:16:10;109.40;;;4.33;;
4274;SDS011;2151;50.988;11.068;2024-02-04T06:18:38;109.23;;;4.13;;
4274;SDS011;2151;50.988;11.068;2024-02-04T06:21:05;109.80;;;4.10;;
4274;SDS011;2151;50.988;11.068;2024-02-04T06:23:32;109.77;;;4.30;;
4274;SDS011;2151;50.988;11.068;2024-02-04T06:25:59;109.50;;;4.20;;
4274;SDS011;2151;50.988;11.068;2024-02-04T06:28:27;109.33;;;4.03;;
4274;SDS011;2151;50.988;11.068;2024-02-04T06:30:53;108.97;;;4.10;;
4274;SDS011;2151;50.988;11.068;2024-02-04T06:33:20;110.07;;;4.00;;
4274;SDS011;2151;50.988;11.068;2024-02-04T06:35:47;109.77;;;3.93;;
4274;SDS011;2151;50.988;11.068;2024-02-04T06:38:14;110.07;;;4.30;;
4274;SDS011;2151;50.988;11.068;2024-02-04T06:40:40;110.17;;;4.03;;
4274;SDS011;2151;50.988;11.068;2024-02-04T06:43:08;109.57;;;4.17;;
4274;SDS011;2151;50.988;11.068;2024-02-04T06:45:34;110.53;;;4.17;;
4274;SDS011;2151;50.988;11.068;2024-02-04T06:48:01;108.80;;;4.10;;
4274;SDS011;2151;50.988;11.068;2024-02-04T06:50:28;109.60;;;4.03;;
4274;SDS011;2151;50.988;11.068;2024-02-04T06:52:55;109.53;;;4.20;;
4274;SDS011;2151;50.988;11.068;2024-02-04T06:55:21;110.27;;;4.27;;
4274;SDS011;2151;50.988;11.068;2024-02-04T06:57:48;110.17;;;4.37;;
4274;SDS011;2151;50.988;11.068;2024-02-04T07:00:15;109.97;;;4.07;;
4274;SDS011;2151;50.988;11.068;2024-02-04T07:02:42;109.60;;;4.17;;
4274;SDS011;2151;50.988;11.068;2024-02-04T07:05:08;110.50;;;4.37;;
4274;SDS011;2151;50.988;11.068;2024-02-04T07:07:37;109.20;;;4.07;;
4274;SDS011;2151;50.988;11.068;2024-02-04T07:10:03;109.57;;;4.30;;
4274;SDS011;2151;50.988;11.068;2024-02-04T07:12:30;110.23;;;4.13;;
4274;SDS011;2151;50.988;11.068;2024-02-04T07:14:58;110.30;;;4.20;;
4274;SDS011;2151;50.988;11.068;2024-02-04T07:17:25;110.27;;;4.23;;
4274;SDS011;2151;50.988;11.068;2024-02-04T07:19:51;110.90;;;4.30;;
4274;SDS011;2151;50.988;11.068;2024-02-04T07:22:25;109.93;;;4.47;;
4274;SDS011;2151;50.988;11.068;2024-02-04T07:24:51;109.70;;;4.50;;
4274;SDS011;2151;50.988;11.068;2024-02-04T07:27:19;110.07;;;4.30;;
4274;SDS011;2151;50.988;11.068;2024-02-04T07:29:46;110.07;;;4.07;;
4274;SDS011;2151;50.988;11.068;2024-02-04T07:32:16;109.50;;;4.07;;
4274;SDS011;2151;50.988;11.068;2024-02-04T07:34:42;109.67;;;4.50;;
4274;SDS011;2151;50.988;11.068;2024-02-04T07:37:10;109.20;;;4.10;;
4274;SDS011;2151;50.988;11.068;2024-02-04T07:39:37;109.27;;;4.33;;
4274;SDS011;2151;50.988;11.068;2024-02-04T07:42:04;111.07;;;4.50;;
4274;SDS011;2151;50.988;11.068;2024-02-04T07:44:31;110.30;;;4.40;;
4274;SDS011;2151;50.988;11.068;2024-02-04T07:46:57;110.10;;;4.63;;
4274;SDS011;2151;50.988;11.068;2024-02-04T07:49:24;109.70;;;4.47;;
4274;SDS011;2151;50.988;11.068;2024-02-04T07:51:51;109.40;;;4.53;;
4274;SDS011;2151;50.988;11.068;2024-02-04T07:54:17;111.07;;;4.77;;
4274;SDS011;2151;50.988;11.068;2024-02-04T07:56:44;109.67;;;4.33;;
4274;SDS011;2151;50.988;11.068;2024-02-04T07:59:10;110.30;;;4.33;;
4274;SDS011;2151;50.988;11.068;2024-02-04T08:01:38;109.70;;;4.73;;
4274;SDS011;2151;50.988;11.068;2024-02-04T08:04:05;110.10;;;4.63;;
4274;SDS011;2151;50.988;11.068;2024-02-04T08:06:35;109.87;;;4.50;;
4274;SDS011;2151;50.988;11.068;2024-02-04T08:09:02;109.77;;;4.50;;
4274;SDS011;2151;50.988;11.068;2024-02-04T08:11:30;109.77;;;4.57;;
4274;SDS011;2151;50.988;11.068;2024-02-04T08:13:56;109.67;;;4.30;;
4274;SDS011;2151;50.988;11.068;2024-02-04T08:16:23;109.97;;;4.57;;
4274;SDS011;2151;50.988;11.068;2024-02-04T08:18:49;110.30;;;4.47;;
4274;SDS011;2151;50.988;11.068;2024-02-04T08:21:16;109.93;;;4.53;;
4274;SDS011;2151;50.988;11.068;2024-02-04T08:23:42;111.87;;;4.40;;
4274;SDS011;2151;50.988;11.068;2024-02-04T08:26:11;109.83;;;4.13;;
4274;SDS011;2151;50.988;11.068;2024-02-04T08:28:37;109.97;;;4.37;;
4274;SDS011;2151;50.988;11.068;2024-02-04T08:31:04;110.10;;;4.27;;
4274;SDS011;2151;50.988;11.068;2024-02-04T08:33:30;109.70;;;4.33;;
4274;SDS011;2151;50.988;11.068;2024-02-04T08:35:57;109.87;;;4.23;;
4274;SDS011;2151;50.988;11.068;2024-02-04T08:38:24;110.90;;;4.23;;
4274;SDS011;2151;50.988;11.068;2024-02-04T08:40:50;109.53;;;4.37;;
4274;SDS011;2151;50.988;11.068;2024-02-04T08:43:16;110.30;;;4.47;;
4274;SDS011;2151;50.988;11.068;2024-02-04T08:45:43;108.77;;;4.20;;
4274;SDS011;2151;50.988;11.068;2024-02-04T08:48:10;110.07;;;4.33;;
4274;SDS011;2151;50.988;11.068;2024-02-04T08:50:36;110.00;;;4.77;;
4274;SDS011;2151;50.988;11.068;2024-02-04T08:53:03;110.30;;;4.47;;
4274;SDS011;2151;50.988;11.068;2024-02-04T08:55:29;109.57;;;4.30;;
4274;SDS011;2151;50.988;11.068;2024-02-04T08:57:55;112.97;;;4.63;;
4274;SDS011;2151;50.988;11.068;2024-02-04T09:00:23;109.83;;;4.73;;
4274;SDS011;2151;50.988;11.068;2024-02-04T09:02:49;110.03;;;4.47;;
4274;SDS011;2151;50.988;11.068;2024-02-04T09:05:15;110.43;;;4.73;;
4274;SDS011;2151;50.988;11.068;2024-02-04T09:07:42;110.13;;;5.00;;
4274;SDS011;2151;50.988;11.068;2024-02-04T09:10:09;111.40;;;5.00;;
4274;SDS011;2151;50.988;11.068;2024-02-04T09:12:36;111.83;;;5.07;;
4274;SDS011;2151;50.988;11.068;2024-02-04T09:15:03;109.57;;;5.10;;
4274;SDS011;2151;50.988;11.068;2024-02-04T09:17:31;110.27;;;5.00;;
4274;SDS011;2151;50.988;11.068;2024-02-04T09:19:59;112.43;;;5.60;;
4274;SDS011;2151;50.988;11.068;2024-02-04T09:22:26;110.80;;;5.23;;
4274;SDS011;2151;50.988;11.068;2024-02-04T09:24:53;109.50;;;4.80;;
4274;SDS011;2151;50.988;11.068;2024-02-04T09:27:21;111.57;;;5.30;;
4274;SDS011;2151;50.988;11.068;2024-02-04T09:29:49;111.03;;;5.53;;
4274;SDS011;2151;50.988;11.068;2024-02-04T09:32:15;111.10;;;5.17;;
4274;SDS011;2151;50.988;11.068;2024-02-04T09:34:44;111.47;;;5.90;;
4274;SDS011;2151;50.988;11.068;2024-02-04T09:37:11;111.20;;;5.47;;
4274;SDS011;2151;50.988;11.068;2024-02-04T09:39:38;110.20;;;5.30;;
4274;SDS011;2151;50.988;11.068;2024-02-04T09:42:04;109.77;;;4.83;;
4274;SDS011;2151;50.988;11.068;2024-02-04T09:44:31;110.63;;;5.20;;
4274;SDS011;2151;50.988;11.068;2024-02-04T09:46:58;111.97;;;5.50;;
4274;SDS011;2151;50.988;11.068;2024-02-04T09:49:28;109.60;;;5.23;;
4274;SDS011;2151;50.988;11.068;2024-02-04T09:51:59;114.80;;;4.83;;
4274;SDS011;2151;50.988;11.068;2024-02-04T09:54:27;109.20;;;4.90;;
4274;SDS011;2151;50.988;11.068;2024-02-04T09:56:54;109.97;;;5.23;;
4274;SDS011;2151;50.988;11.068;2024-02-04T09:59:21;109.07;;;5.00;;
4274;SDS011;2151;50.988;11.068;2024-02-04T10:01:47;108.80;;;4.90;;
4274;SDS011;2151;50.988;11.068;2024-02-04T10:04:14;110.00;;;4.80;;
4274;SDS011;2151;50.988;11.068;2024-02-04T10:06:41;109.17;;;4.60;;
4274;SDS011;2151;50.988;11.068;2024-02-04T10:09:08;109.20;;;4.57;;
4274;SDS011;2151;50.988;11.068;2024-02-04T10:11:34;110.87;;;4.97;;
4274;SDS011;2151;50.988;11.068;2024-02-04T10:14:01;110.20;;;4.93;;
4274;SDS011;2151;50.988;11.068;2024-02-04T10:16:27;108.80;;;4.70;;
4274;SDS011;2151;50.988;11.068;2024-02-04T10:18:55;108.83;;;4.87;;
4274;SDS011;2151;50.988;11.068;2024-02-04T10:21:23;110.10;;;4.97;;
4274;SDS011;2151;50.988;11.068;2024-02-04T10:23:50;108.37;;;4.70;;
4274;SDS011;2151;50.988;11.068;2024-02-04T10:26:17;109.17;;;4.60;;
4274;SDS011;2151;50.988;11.068;2024-02-04T10:28:46;108.60;;;4.43;;
4274;SDS011;2151;50.988;11.068;2024-02-04T10:31:14;111.80;;;4.67;;
4274;SDS011;2151;50.988;11.068;2024-02-04T10:33:40;109.40;;;4.80;;
4274;SDS011;2151;50.988;11.068;2024-02-04T10:36:09;110.40;;;4.57;;
4274;SDS011;2151;50.988;11.068;2024-02-04T10:38:37;108.90;;;4.37;;
4274;SDS011;2151;50.988;11.068;2024-02-04T10:41:04;113.83;;;5.00;;
4274;SDS011;2151;50.988;11.068;2024-02-04T10:43:31;109.50;;;4.77;;
4274;SDS011;2151;50.988;11.068;2024-02-04T10:45:59;111.90;;;6.13;;
4274;SDS011;2151;50.988;11.068;2024-02-04T10:48:27;110.73;;;5.20;;
4274;SDS011;2151;50.988;11.068;2024-02-04T10:50:55;110.63;;;5.00;;
4274;SDS011;2151;50.988;11.068;2024-02-04T10:53:24;112.80;;;4.93;;
4274;SDS011;2151;50.988;11.068;2024-02-04T10:55:51;110.37;;;4.73;;
4274;SDS011;2151;50.988;11.068;2024-02-04T10:58:20;109.40;;;4.63;;
4274;SDS011;2151;50.988;11.068;2024-02-04T11:00:53;112.00;;;4.93;;
4274;SDS011;2151;50.988;11.068;2024-02-04T11:03:20;109.10;;;4.53;;
4274;SDS011;2151;50.988;11.068;2024-02-04T11:05:49;110.47;;;4.67;;
4274;SDS011;2151;50.988;11.068;2024-02-04T11:08:16;111.30;;;5.00;;
4274;SDS011;2151;50.988;11.068;2024-02-04T11:10:43;111.70;;;5.07;;
4274;SDS011;2151;50.988;11.068;2024-02-04T11:13:10;110.30;;;4.80;;
4274;SDS011;2151;50.988;11.068;2024-02-04T11:15:37;109.00;;;4.60;;
4274;SDS011;2151;50.988;11.068;2024-02-04T11:18:15;109.77;;;5.10;;
4274;SDS011;2151;50.988;11.068;2024-02-04T11:23:45;110.80;;;4.90;;
4274;SDS011;2151;50.988;11.068;2024-02-04T11:26:15;110.97;;;5.03;;
4274;SDS011;2151;50.988;11.068;2024-02-04T11:28:42;111.10;;;5.30;;
4274;SDS011;2151;50.988;11.068;2024-02-04T11:31:17;111.70;;;5.27;;
4274;SDS011;2151;50.988;11.068;2024-02-04T11:33:44;128.10;;;4.90;;
4274;SDS011;2151;50.988;11.068;2024-02-04T11:36:13;110.27;;;4.70;;
4274;SDS011;2151;50.988;11.068;2024-02-04T11:38:41;111.80;;;4.73;;
4274;SDS011;2151;50.988;11.068;2024-02-04T11:41:07;110.10;;;4.63;;
4274;SDS011;2151;50.988;11.068;2024-02-04T11:43:37;110.57;;;4.50;;
4274;SDS011;2151;50.988;11.068;2024-02-04T11:46:06;111.53;;;4.90;;
4274;SDS011;2151;50.988;11.068;2024-02-04T11:48:36;110.80;;;4.67;;
4274;SDS011;2151;50.988;11.068;2024-02-04T11:51:05;112.57;;;5.73;;
4274;SDS011;2151;50.988;11.068;2024-02-04T11:53:33;110.93;;;4.63;;
4274;SDS011;2151;50.988;11.068;2024-02-04T11:56:02;110.60;;;4.40;;
4274;SDS011;2151;50.988;11.068;2024-02-04T11:58:30;111.27;;;4.97;;
4274;SDS011;2151;50.988;11.068;2024-02-04T12:00:58;110.80;;;4.70;;
4274;SDS011;2151;50.988;11.068;2024-02-04T12:03:31;110.07;;;4.53;;
4274;SDS011;2151;50.988;11.068;2024-02-04T12:05:58;110.57;;;4.80;;
4274;SDS011;2151;50.988;11.068;2024-02-04T12:08:26;110.57;;;4.57;;
4274;SDS011;2151;50.988;11.068;2024-02-04T12:10:53;110.53;;;4.73;;
4274;SDS011;2151;50.988;11.068;2024-02-04T12:13:20;110.57;;;4.73;;
4274;SDS011;2151;50.988;11.068;2024-02-04T12:15:47;110.67;;;4.77;;
4274;SDS011;2151;50.988;11.068;2024-02-04T12:18:15;111.00;;;4.67;;
4274;SDS011;2151;50.988;11.068;2024-02-04T12:20:46;109.87;;;4.50;;
4274;SDS011;2151;50.988;11.068;2024-02-04T12:23:13;110.70;;;4.60;;
4274;SDS011;2151;50.988;11.068;2024-02-04T12:25:40;110.50;;;4.53;;
4274;SDS011;2151;50.988;11.068;2024-02-04T12:28:10;110.67;;;4.73;;
4274;SDS011;2151;50.988;11.068;2024-02-04T12:30:36;109.30;;;4.43;;
4274;SDS011;2151;50.988;11.068;2024-02-04T12:33:03;111.33;;;4.57;;
4274;SDS011;2151;50.988;11.068;2024-02-04T12:35:31;110.70;;;4.63;;
4274;SDS011;2151;50.988;11.068;2024-02-04T12:37:58;110.40;;;4.47;;
4274;SDS011;2151;50.988;11.068;2024-02-04T12:40:26;109.57;;;4.40;;
4274;SDS011;2151;50.988;11.068;2024-02-04T12:45:29;110.30;;;4.73;;
4274;SDS011;2151;50.988;11.068;2024-02-04T12:47:56;110.90;;;4.83;;
4274;SDS011;2151;50.988;11.068;2024-02-04T12:50:24;111.77;;;5.50;;
4274;SDS011;2151;50.988;11.068;2024-02-04T12:53:02;111.53;;;6.13;;
4274;SDS011;2151;50.988;11.068;2024-02-04T12:55:29;119.30;;;7.47;;
4274;SDS011;2151;50.988;11.068;2024-02-04T12:58:04;117.47;;;6.87;;
4274;SDS011;2151;50.988;11.068;2024-02-04T13:00:35;110.60;;;4.80;;
4274;SDS011;2151;50.988;11.068;2024-02-04T13:03:02;110.27;;;4.73;;
4274;SDS011;2151;50.988;11.068;2024-02-04T13:05:30;112.20;;;4.70;;
4274;SDS011;2151;50.988;11.068;2024-02-04T13:07:58;110.60;;;5.03;;
4274;SDS011;2151;50.988;11.068;2024-02-04T13:10:28;113.40;;;4.57;;
4274;SDS011;2151;50.988;11.068;2024-02-04T13:13:01;110.17;;;4.47;;
4274;SDS011;2151;50.988;11.068;2024-02-04T13:15:36;113.97;;;4.40;;
4274;SDS011;2151;50.988;11.068;2024-02-04T13:18:03;110.50;;;4.90;;
4274;SDS011;2151;50.988;11.068;2024-02-04T13:20:30;109.97;;;4.67;;
4274;SDS011;2151;50.988;11.068;2024-02-04T13:22:57;110.07;;;4.63;;
4274;SDS011;2151;50.988;11.068;2024-02-04T13:25:25;110.30;;;4.53;;
4274;SDS011;2151;50.988;11.068;2024-02-04T13:27:52;110.37;;;4.47;;
4274;SDS011;2151;50.988;11.068;2024-02-04T13:30:18;111.70;;;4.57;;
4274;SDS011;2151;50.988;11.068;2024-02-04T13:32:45;109.77;;;4.50;;
4274;SDS011;2151;50.988;11.068;2024-02-04T13:35:12;109.70;;;4.60;;
4274;SDS011;2151;50.988;11.068;2024-02-04T13:37:46;109.67;;;4.57;;
4274;SDS011;2151;50.988;11.068;2024-02-04T13:40:19;109.83;;;4.80;;
4274;SDS011;2151;50.988;11.068;2024-02-04T13:42:46;110.57;;;4.50;;
4274;SDS011;2151;50.988;11.068;2024-02-04T13:45:13;109.47;;;4.70;;
4274;SDS011;2151;50.988;11.068;2024-02-04T13:47:45;110.07;;;4.67;;
4274;SDS011;2151;50.988;11.068;2024-02-04T13:50:11;110.07;;;4.73;;
4274;SDS011;2151;50.988;11.068;2024-02-04T13:52:38;109.40;;;4.50;;
4274;SDS011;2151;50.988;11.068;2024-02-04T13:55:06;109.77;;;4.83;;
4274;SDS011;2151;50.988;11.068;2024-02-04T13:57:35;110.20;;;4.70;;
4274;SDS011;2151;50.988;11.068;2024-02-04T14:00:03;109.53;;;4.90;;
4274;SDS011;2151;50.988;11.068;2024-02-04T14:02:31;110.20;;;4.80;;
4274;SDS011;2151;50.988;11.068;2024-02-04T14:04:58;109.90;;;4.60;;
4274;SDS011;2151;50.988;11.068;2024-02-04T14:07:25;113.07;;;4.90;;
4274;SDS011;2151;50.988;11.068;2024-02-04T14:09:52;109.63;;;4.37;;
4274;SDS011;2151;50.988;11.068;2024-02-04T14:12:18;109.83;;;4.87;;
4274;SDS011;2151;50.988;11.068;2024-02-04T14:14:45;110.10;;;4.67;;
4274;SDS011;2151;50.988;11.068;2024-02-04T14:17:11;109.97;;;4.60;;
4274;SDS011;2151;50.988;11.068;2024-02-04T14:19:38;109.80;;;4.80;;
4274;SDS011;2151;50.988;11.068;2024-02-04T14:22:05;110.40;;;5.07;;
4274;SDS011;2151;50.988;11.068;2024-02-04T14:24:32;110.87;;;4.77;;
4274;SDS011;2151;50.988;11.068;2024-02-04T14:26:59;111.40;;;5.00;;
4274;SDS011;2151;50.988;11.068;2024-02-04T14:29:26;112.07;;;4.93;;
4274;SDS011;2151;50.988;11.068;2024-02-04T14:31:53;110.03;;;4.80;;
4274;SDS011;2151;50.988;11.068;2024-02-04T14:34:19;110.57;;;4.90;;
4274;SDS011;2151;50.988;11.068;2024-02-04T14:36:48;110.87;;;5.07;;
4274;SDS011;2151;50.988;11.068;2024-02-04T14:39:15;110.80;;;5.13;;
4274;SDS011;2151;50.988;11.068;2024-02-04T14:41:42;111.07;;;4.77;;
4274;SDS011;2151;50.988;11.068;2024-02-04T14:44:09;110.70;;;4.83;;
4274;SDS011;2151;50.988;11.068;2024-02-04T14:46:37;110.50;;;5.13;;
4274;SDS011;2151;50.988;11.068;2024-02-04T14:49:04;110.27;;;5.30;;
4274;SDS011;2151;50.988;11.068;2024-02-04T14:51:31;110.80;;;5.03;;
4274;SDS011;2151;50.988;11.068;2024-02-04T14:53:57;110.50;;;5.17;;